createdAt,value
2019-05-01T00:02:35.862Z,100620.20
2019-05-01T00:05:10.664Z,100612.42
2019-05-01T00:07:40.311Z,100611.02
2019-05-01T00:10:10.477Z,100613.30
2019-05-01T00:12:40.195Z,100613.05
2019-05-01T00:15:11.299Z,100614.58
2019-05-01T00:17:41.012Z,100603.80
2019-05-01T00:20:10.835Z,100599.12
2019-05-01T00:22:40.457Z,100599.24
2019-05-01T00:25:10.125Z,100599.20
2019-05-01T00:27:39.749Z,100602.88
2019-05-01T00:30:11.285Z,100602.56
2019-05-01T00:32:40.904Z,100588.98
2019-05-01T00:35:10.617Z,100585.44
2019-05-01T00:37:40.242Z,100584.30
2019-05-01T00:40:10.631Z,100584.05
2019-05-01T00:42:40.251Z,100583.13
2019-05-01T00:45:09.968Z,100590.39
2019-05-01T00:47:39.658Z,100593.64
2019-05-01T00:50:09.445Z,100590.42
2019-05-01T00:52:39.091Z,100588.77
2019-05-01T00:55:26.525Z,100584.53
2019-05-01T00:57:57.788Z,100575.70
2019-05-01T01:00:29.069Z,100584.86
2019-05-01T01:02:58.973Z,100583.26
2019-05-01T01:05:28.927Z,100580.98
2019-05-01T01:07:58.552Z,100582.30
2019-05-01T01:10:28.501Z,100577.06
2019-05-01T01:12:58.126Z,100567.82
2019-05-01T01:15:27.778Z,100576.14
2019-05-01T01:17:57.410Z,100570.86
2019-05-01T01:20:27.248Z,100570.81
2019-05-01T01:22:57.377Z,100573.59
2019-05-01T01:25:27.899Z,100568.23
2019-05-01T01:27:57.527Z,100562.11
2019-05-01T01:30:27.240Z,100565.31
2019-05-01T01:32:56.873Z,100557.08
2019-05-01T01:35:26.533Z,100552.64
2019-05-01T01:37:56.157Z,100557.14
2019-05-01T01:40:25.806Z,100558.28
2019-05-01T01:42:57.616Z,100552.06
2019-05-01T01:45:34.314Z,100546.02
2019-05-01T01:48:11.656Z,100544.83
2019-05-01T01:50:44.235Z,100547.09
2019-05-01T01:53:16.443Z,100540.61
2019-05-01T01:55:47.094Z,100546.05
2019-05-01T01:58:17.877Z,100543.38
2019-05-01T02:00:49.140Z,100541.63
2019-05-01T02:03:19.532Z,100543.65
2019-05-01T02:05:49.199Z,100542.25
2019-05-01T02:08:18.824Z,100544.27
2019-05-01T02:10:48.551Z,100545.97
2019-05-01T02:13:18.239Z,100544.77
2019-05-01T02:15:47.896Z,100550.09
2019-05-01T02:18:17.516Z,100552.17
2019-05-01T02:20:47.161Z,100543.88
2019-05-01T02:23:16.809Z,100545.11
2019-05-01T02:25:46.446Z,100535.88
2019-05-01T02:28:26.752Z,100531.53
2019-05-01T02:31:27.004Z,100526.23
2019-05-01T02:33:47.336Z,100530.95
2019-05-01T02:36:19.068Z,100526.52
2019-05-01T02:38:49.949Z,100524.25
2019-05-01T02:41:20.677Z,100524.94
2019-05-01T02:43:53.011Z,100523.36
2019-05-01T02:46:25.180Z,100519.98
2019-05-01T02:49:03.438Z,100518.02
2019-05-01T02:51:33.887Z,100516.44
2019-05-01T02:54:03.910Z,100510.84
2019-05-01T02:56:35.833Z,100512.44
2019-05-01T02:59:06.513Z,100517.92
2019-05-01T03:01:46.905Z,100513.64
2019-05-01T03:04:10.422Z,100514.56
2019-05-01T03:06:40.772Z,100514.39
2019-05-01T03:09:10.868Z,100517.08
2019-05-01T03:11:42.127Z,100509.72
2019-05-01T03:14:14.815Z,100508.95
2019-05-01T03:16:46.068Z,100512.45
2019-05-01T03:19:35.983Z,100519.13
2019-05-01T03:22:23.770Z,100520.31
2019-05-01T03:24:53.645Z,100514.81
2019-05-01T03:27:23.440Z,100507.63
2019-05-01T03:29:53.161Z,100505.08
2019-05-01T03:32:22.945Z,100506.78
2019-05-01T03:34:53.453Z,100510.58
2019-05-01T03:37:23.138Z,100511.59
2019-05-01T03:39:53.325Z,100520.77
2019-05-01T03:42:23.109Z,100519.80
2019-05-01T03:44:53.132Z,100504.17
2019-05-01T03:47:23.287Z,100512.84
2019-05-01T03:49:53.276Z,100505.77
2019-05-01T03:52:23.028Z,100504.27
2019-05-01T03:54:53.016Z,100507.00
2019-05-01T03:57:22.968Z,100502.31
2019-05-01T03:59:52.781Z,100497.71
2019-05-01T04:02:33.863Z,100504.84
2019-05-01T04:04:56.801Z,100505.30
2019-05-01T04:07:26.747Z,100495.85
2019-05-01T04:09:56.532Z,100494.14
2019-05-01T04:12:26.586Z,100493.66
2019-05-01T04:14:56.463Z,100503.42
2019-05-01T04:17:28.193Z,100502.82
2019-05-01T04:19:58.285Z,100511.20
2019-05-01T04:22:27.907Z,100517.38
2019-05-01T04:24:57.924Z,100516.08
2019-05-01T04:27:29.378Z,100510.81
2019-05-01T04:30:03.497Z,100508.36
2019-05-01T04:32:50.825Z,100509.39
2019-05-01T04:35:19.346Z,100516.69
2019-05-01T04:37:49.757Z,100516.16
2019-05-01T04:40:19.943Z,100524.48
2019-05-01T04:42:49.588Z,100513.87
2019-05-01T04:45:19.802Z,100506.06
2019-05-01T04:47:49.787Z,100508.05
2019-05-01T04:50:19.593Z,100506.55
2019-05-01T04:52:49.223Z,100506.73
2019-05-01T04:55:19.475Z,100504.14
2019-05-01T04:57:49.655Z,100508.33
2019-05-01T05:00:19.372Z,100511.61
2019-05-01T05:03:03.584Z,100508.51
2019-05-01T05:05:22.924Z,100510.12
2019-05-01T05:07:52.721Z,100523.33
2019-05-01T05:10:22.407Z,100526.41
2019-05-01T05:12:57.143Z,100530.60
2019-05-01T05:15:43.531Z,100526.50
2019-05-01T05:18:13.655Z,100525.55
2019-05-01T05:20:43.290Z,100533.20
2019-05-01T05:23:13.000Z,100524.25
2019-05-01T05:25:42.987Z,100516.68
2019-05-01T05:28:13.594Z,100516.63
2019-05-01T05:30:44.919Z,100508.67
2019-05-01T05:33:18.801Z,100512.27
2019-05-01T05:35:50.415Z,100515.16
2019-05-01T05:38:40.942Z,100512.64
2019-05-01T05:41:11.005Z,100512.56
2019-05-01T05:43:40.992Z,100509.49
2019-05-01T05:46:10.817Z,100504.84
2019-05-01T05:48:40.714Z,100508.56
2019-05-01T05:51:21.134Z,100508.55
2019-05-01T05:53:58.317Z,100505.88
2019-05-01T05:56:35.113Z,100496.17
2019-05-01T05:59:07.977Z,100491.40
2019-05-01T06:01:44.930Z,100489.55
2019-05-01T06:04:21.160Z,100489.12
2019-05-01T06:07:10.481Z,100481.86
2019-05-01T06:09:48.443Z,100480.39
2019-05-01T06:12:22.191Z,100475.02
2019-05-01T06:15:02.297Z,100473.84
2019-05-01T06:17:37.853Z,100478.19
2019-05-01T06:20:10.276Z,100477.61
2019-05-01T06:22:58.460Z,100479.04
2019-05-01T06:25:33.840Z,100481.33
2019-05-01T06:28:03.571Z,100478.20
2019-05-01T06:30:34.039Z,100485.42
2019-05-01T06:33:08.818Z,100479.22
2019-05-01T06:35:38.246Z,100481.88
2019-05-01T06:38:17.569Z,100479.16
2019-05-01T06:40:53.197Z,100478.91
2019-05-01T06:43:28.458Z,100484.78
2019-05-01T06:46:12.124Z,100483.77
2019-05-01T06:48:55.110Z,100481.77
2019-05-01T06:51:35.282Z,100484.05
2019-05-01T06:54:11.471Z,100473.52
2019-05-01T06:56:40.873Z,100471.77
2019-05-01T06:59:10.989Z,100473.24
2019-05-01T07:01:41.043Z,100469.44
2019-05-01T07:04:10.870Z,100465.13
2019-05-01T07:06:40.559Z,100467.24
2019-05-01T07:09:11.983Z,100463.11
2019-05-01T07:11:42.713Z,100460.61
2019-05-01T07:14:16.072Z,100462.48
2019-05-01T07:16:45.473Z,100458.56
2019-05-01T07:19:16.171Z,100456.36
2019-05-01T07:21:45.797Z,100461.88
2019-05-01T07:24:15.588Z,100454.98
2019-05-01T07:26:48.038Z,100456.91
2019-05-01T07:29:18.228Z,100461.91
2019-05-01T07:31:47.928Z,100458.09
2019-05-01T07:34:21.565Z,100458.23
2019-05-01T07:36:50.172Z,100455.77
2019-05-01T07:39:20.687Z,100452.55
2019-05-01T07:41:50.443Z,100457.31
2019-05-01T07:44:24.503Z,100458.86
2019-05-01T07:47:04.831Z,100457.66
2019-05-01T07:49:52.779Z,100452.25
2019-05-01T07:52:21.880Z,100449.12
2019-05-01T07:54:52.170Z,100451.00
2019-05-01T07:57:23.056Z,100450.37
2019-05-01T07:59:52.906Z,100453.91
2019-05-01T08:02:25.854Z,100455.62
2019-05-01T08:04:53.901Z,100444.45
2019-05-01T08:07:27.819Z,100453.37
2019-05-01T08:09:54.981Z,100452.89
2019-05-01T08:12:25.891Z,100449.89
2019-05-01T08:14:55.835Z,100441.07
2019-05-01T08:17:27.125Z,100443.45
2019-05-01T08:20:01.401Z,100441.87
2019-05-01T08:22:37.340Z,100439.25
2019-05-01T08:25:04.948Z,100437.74
2019-05-01T08:27:50.920Z,100440.73
2019-05-01T08:30:24.241Z,100443.25
2019-05-01T08:33:14.685Z,100442.81
2019-05-01T08:35:44.992Z,100436.84
2019-05-01T08:38:14.656Z,100435.41
2019-05-01T08:40:44.271Z,100431.16
2019-05-01T08:43:18.175Z,100435.88
2019-05-01T08:45:46.893Z,100434.72
2019-05-01T08:48:20.815Z,100432.02
2019-05-01T08:50:50.456Z,100431.95
2019-05-01T08:53:22.061Z,100432.05
2019-05-01T08:55:51.415Z,100420.86
2019-05-01T08:58:21.074Z,100423.92
2019-05-01T09:00:50.697Z,100415.16
2019-05-01T09:03:20.760Z,100405.92
2019-05-01T09:05:52.225Z,100407.28
2019-05-01T09:08:22.241Z,100406.30
2019-05-01T09:10:54.634Z,100412.75
2019-05-01T09:13:23.911Z,100411.72
2019-05-01T09:15:54.420Z,100409.06
2019-05-01T09:18:24.462Z,100398.38
2019-05-01T09:20:56.021Z,100395.60
2019-05-01T09:23:25.690Z,100388.31
2019-05-01T09:26:15.923Z,100396.98
2019-05-01T09:28:48.823Z,100391.02
2019-05-01T09:31:20.097Z,100390.72
2019-05-01T09:33:49.748Z,100389.09
2019-05-01T09:36:19.376Z,100383.63
2019-05-01T09:38:50.116Z,100381.97
2019-05-01T09:41:19.872Z,100379.00
2019-05-01T09:43:49.519Z,100383.98
2019-05-01T09:46:19.154Z,100377.66
2019-05-01T09:48:48.885Z,100377.66
2019-05-01T09:51:36.064Z,100382.05
2019-05-01T09:54:11.003Z,100375.78
2019-05-01T09:56:40.733Z,100376.95
2019-05-01T09:59:12.555Z,100360.75
2019-05-01T10:01:41.700Z,100351.68
2019-05-01T10:04:11.321Z,100363.87
2019-05-01T10:06:40.975Z,100355.83
2019-05-01T10:09:11.959Z,100354.36
2019-05-01T10:11:42.511Z,100359.95
2019-05-01T10:14:12.137Z,100350.01
2019-05-01T10:16:41.787Z,100348.38
2019-05-01T10:19:11.414Z,100337.59
2019-05-01T10:21:41.063Z,100331.97
2019-05-01T10:24:10.692Z,100329.84
2019-05-01T10:26:41.973Z,100326.25
2019-05-01T10:29:16.038Z,100320.23
2019-05-01T10:31:59.396Z,100312.31
2019-05-01T10:34:33.353Z,100307.55
2019-05-01T10:37:03.012Z,100305.41
2019-05-01T10:39:32.640Z,100305.11
2019-05-01T10:42:02.294Z,100303.03
2019-05-01T10:44:31.921Z,100307.14
2019-05-01T10:47:02.096Z,100308.30
2019-05-01T10:49:31.878Z,100304.60
2019-05-01T10:52:13.631Z,100305.98
2019-05-01T10:54:32.860Z,100306.84
2019-05-01T10:57:03.344Z,100302.84
2019-05-01T10:59:33.827Z,100290.53
2019-05-01T11:02:05.120Z,100292.02
2019-05-01T11:04:34.764Z,100292.13
2019-05-01T11:07:04.405Z,100295.40
2019-05-01T11:09:34.036Z,100294.63
2019-05-01T11:12:03.697Z,100298.08
2019-05-01T11:14:33.320Z,100287.70
2019-05-01T11:17:03.179Z,100289.56
2019-05-01T11:19:32.806Z,100288.72
2019-05-01T11:22:02.457Z,100291.55
2019-05-01T11:24:32.077Z,100291.02
2019-05-01T11:27:01.932Z,100285.16
2019-05-01T11:29:31.586Z,100285.81
2019-05-01T11:32:02.893Z,100286.59
2019-05-01T11:34:40.012Z,100282.87
2019-05-01T11:37:23.100Z,100279.98
2019-05-01T11:40:03.398Z,100278.50
2019-05-01T11:42:33.066Z,100283.38
2019-05-01T11:45:02.695Z,100285.25
2019-05-01T11:47:32.357Z,100264.84
2019-05-01T11:50:01.985Z,100280.20
2019-05-01T11:52:31.641Z,100273.40
2019-05-01T11:55:01.291Z,100273.16
2019-05-01T11:57:30.942Z,100276.61
2019-05-01T12:00:00.598Z,100272.08
2019-05-01T12:02:30.326Z,100274.58
2019-05-01T12:04:59.984Z,100274.60
2019-05-01T12:07:29.614Z,100265.95
2019-05-01T12:09:59.280Z,100264.64
2019-05-01T12:12:30.652Z,100261.16
2019-05-01T12:15:00.300Z,100256.84
2019-05-01T12:17:34.414Z,100258.30
2019-05-01T12:20:06.307Z,100253.66
2019-05-01T12:22:35.938Z,100243.84
2019-05-01T12:25:07.234Z,100244.19
2019-05-01T12:27:36.866Z,100242.56
2019-05-01T12:30:08.763Z,100240.90
2019-05-01T12:32:38.385Z,100236.23
2019-05-01T12:35:08.209Z,100246.84
2019-05-01T12:37:41.527Z,100230.86
2019-05-01T12:40:13.622Z,100228.92
2019-05-01T12:42:43.254Z,100224.59
2019-05-01T12:45:13.952Z,100223.53
2019-05-01T12:47:45.217Z,100225.19
2019-05-01T12:50:15.224Z,100220.64
2019-05-01T12:52:46.655Z,100222.03
2019-05-01T12:55:18.124Z,100212.25
2019-05-01T12:57:47.754Z,100209.73
2019-05-01T13:00:19.150Z,100218.86
2019-05-01T13:02:48.782Z,100207.83
2019-05-01T13:05:18.438Z,100203.84
2019-05-01T13:07:48.074Z,100201.97
2019-05-01T13:10:17.725Z,100195.82
2019-05-01T13:12:47.355Z,100191.81
2019-05-01T13:15:17.627Z,100186.58
2019-05-01T13:17:47.358Z,100174.92
2019-05-01T13:20:17.008Z,100177.24
2019-05-01T13:22:46.638Z,100173.38
2019-05-01T13:25:16.294Z,100171.50
2019-05-01T13:27:50.498Z,100169.88
2019-05-01T13:30:30.814Z,100168.25
2019-05-01T13:33:00.517Z,100165.00
2019-05-01T13:35:30.619Z,100165.77
2019-05-01T13:38:00.297Z,100151.98
2019-05-01T13:40:29.949Z,100147.31
2019-05-01T13:42:59.584Z,100146.55
2019-05-01T13:45:29.245Z,100142.95
2019-05-01T13:47:59.618Z,100145.02
2019-05-01T13:50:29.282Z,100146.66
2019-05-01T13:52:58.916Z,100143.41
2019-05-01T13:55:28.643Z,100137.33
2019-05-01T13:57:58.295Z,100140.08
2019-05-01T14:00:27.955Z,100149.55
2019-05-01T14:02:57.602Z,100156.05
2019-05-01T14:05:27.761Z,100162.45
2019-05-01T14:07:58.306Z,100157.90
2019-05-01T14:10:27.973Z,100137.99
2019-05-01T14:12:57.604Z,100138.31
2019-05-01T14:15:27.423Z,100136.13
2019-05-01T14:17:57.078Z,100133.38
2019-05-01T14:20:34.376Z,100132.02
2019-05-01T14:23:20.214Z,100126.31
2019-05-01T14:26:05.782Z,100125.57
2019-05-01T14:28:36.019Z,100128.33
2019-05-01T14:31:06.509Z,100123.77
2019-05-01T14:33:36.200Z,100117.46
2019-05-01T14:36:05.889Z,100120.83
2019-05-01T14:38:35.560Z,100118.90
2019-05-01T14:41:05.295Z,100108.40
2019-05-01T14:43:35.069Z,100110.30
2019-05-01T14:46:04.848Z,100109.91
2019-05-01T14:48:34.517Z,100111.23
2019-05-01T14:51:04.223Z,100102.33
2019-05-01T14:53:33.894Z,100106.95
2019-05-01T14:56:03.552Z,100105.94
2019-05-01T14:58:33.229Z,100112.30
2019-05-01T15:01:02.869Z,100106.91
2019-05-01T15:03:32.635Z,100105.55
2019-05-01T15:06:02.267Z,100104.13
2019-05-01T15:08:31.926Z,100100.47
2019-05-01T15:11:01.565Z,100099.19
2019-05-01T15:13:47.721Z,100108.27
2019-05-01T15:16:31.060Z,100099.67
2019-05-01T15:19:05.163Z,100097.95
2019-05-01T15:21:34.799Z,100099.11
2019-05-01T15:24:04.646Z,100093.82
2019-05-01T15:26:34.284Z,100091.14
2019-05-01T15:29:04.116Z,100086.16
2019-05-01T15:31:33.846Z,100090.20
2019-05-01T15:34:03.687Z,100088.88
2019-05-01T15:36:33.326Z,100087.25
2019-05-01T15:39:04.647Z,100080.95
2019-05-01T15:41:35.918Z,100082.58
2019-05-01T15:44:07.228Z,100076.62
2019-05-01T15:46:38.506Z,100075.31
2019-05-01T15:49:08.163Z,100065.31
2019-05-01T15:51:37.800Z,100084.75
2019-05-01T15:54:07.761Z,100064.88
2019-05-01T15:56:37.391Z,100063.86
2019-05-01T15:59:07.062Z,100065.00
2019-05-01T16:01:36.703Z,100062.41
2019-05-01T16:04:06.532Z,100055.26
2019-05-01T16:06:36.185Z,100056.12
2019-05-01T16:09:07.282Z,100044.56
2019-05-01T16:11:56.959Z,100050.25
2019-05-01T16:14:26.620Z,100048.20
2019-05-01T16:16:56.254Z,100047.59
2019-05-01T16:19:25.917Z,100049.37
2019-05-01T16:21:55.973Z,100057.47
2019-05-01T16:24:25.609Z,100054.28
2019-05-01T16:26:55.257Z,100056.22
2019-05-01T16:29:24.886Z,100051.75
2019-05-01T16:31:54.548Z,100048.63
2019-05-01T16:34:24.495Z,100048.98
2019-05-01T16:36:54.496Z,100046.00
2019-05-01T16:39:41.701Z,100048.59
2019-05-01T16:42:11.431Z,100047.25
2019-05-01T16:44:41.066Z,100036.30
2019-05-01T16:47:10.718Z,100032.99
2019-05-01T16:49:40.354Z,100029.69
2019-05-01T16:52:10.005Z,100027.34
2019-05-01T16:54:39.637Z,100027.86
2019-05-01T16:57:10.931Z,100025.72
2019-05-01T16:59:40.557Z,100028.73
2019-05-01T17:02:20.765Z,100028.59
2019-05-01T17:05:08.197Z,100028.25
2019-05-01T17:07:45.244Z,100018.81
2019-05-01T17:10:16.682Z,100024.12
2019-05-01T17:12:53.812Z,100034.95
2019-05-01T17:15:28.462Z,100023.52
2019-05-01T17:17:58.120Z,100030.55
2019-05-01T17:20:28.027Z,100034.93
2019-05-01T17:22:57.687Z,100019.11
2019-05-01T17:25:29.549Z,100023.18
2019-05-01T17:28:02.968Z,100028.88
2019-05-01T17:30:41.421Z,100032.77
2019-05-01T17:33:19.616Z,100030.73
2019-05-01T17:35:43.234Z,100029.41
2019-05-01T17:38:13.051Z,100027.08
2019-05-01T17:40:42.684Z,100026.06
2019-05-01T17:43:13.439Z,100024.03
2019-05-01T17:45:43.362Z,100024.70
2019-05-01T17:48:13.033Z,100021.88
2019-05-01T17:50:42.695Z,100025.66
2019-05-01T17:53:12.354Z,100020.69
2019-05-01T17:55:41.986Z,100024.95
2019-05-01T17:58:11.659Z,100027.19
2019-05-01T18:00:43.069Z,100031.62
2019-05-01T18:03:14.366Z,100030.87
2019-05-01T18:06:03.162Z,100036.23
2019-05-01T18:08:32.904Z,100036.87
2019-05-01T18:11:02.563Z,100041.58
2019-05-01T18:13:32.225Z,100040.37
2019-05-01T18:16:01.951Z,100045.22
2019-05-01T18:18:31.655Z,100042.58
2019-05-01T18:21:01.318Z,100044.36
2019-05-01T18:23:49.522Z,100043.47
2019-05-01T18:26:23.487Z,100043.16
2019-05-01T18:29:09.807Z,100040.64
2019-05-01T18:31:39.470Z,100038.60
2019-05-01T18:34:09.174Z,100043.69
2019-05-01T18:36:40.538Z,100042.55
2019-05-01T18:39:16.825Z,100051.13
2019-05-01T18:42:00.604Z,100044.04
2019-05-01T18:44:30.249Z,100049.20
2019-05-01T18:46:59.920Z,100049.02
2019-05-01T18:49:29.547Z,100044.48
2019-05-01T18:51:59.214Z,100051.60
2019-05-01T18:54:30.420Z,100051.86
2019-05-01T18:57:00.219Z,100053.77
2019-05-01T18:59:29.852Z,100057.78
2019-05-01T19:02:01.364Z,100053.80
2019-05-01T19:04:30.982Z,100055.66
2019-05-01T19:07:00.732Z,100055.75
2019-05-01T19:09:30.881Z,100057.34
2019-05-01T19:12:00.509Z,100053.48
2019-05-01T19:14:31.054Z,100051.33
2019-05-01T19:17:00.805Z,100057.24
2019-05-01T19:19:30.422Z,100063.41
2019-05-01T19:22:00.085Z,100059.41
2019-05-01T19:24:32.604Z,100067.61
2019-05-01T19:27:01.225Z,100064.06
2019-05-01T19:29:32.097Z,100068.73
2019-05-01T19:32:02.299Z,100065.66
2019-05-01T19:34:31.929Z,100064.15
2019-05-01T19:37:01.730Z,100063.91
2019-05-01T19:39:42.902Z,100061.55
2019-05-01T19:42:02.796Z,100068.89
2019-05-01T19:44:32.424Z,100062.16
2019-05-01T19:47:02.082Z,100065.98
2019-05-01T19:49:31.806Z,100066.73
2019-05-01T19:52:02.035Z,100065.16
2019-05-01T19:54:31.783Z,100070.34
2019-05-01T19:57:01.418Z,100068.95
2019-05-01T19:59:31.138Z,100074.77
2019-05-01T20:02:00.926Z,100072.55
2019-05-01T20:04:30.566Z,100068.52
2019-05-01T20:07:00.220Z,100067.87
2019-05-01T20:09:29.969Z,100066.62
2019-05-01T20:11:59.671Z,100069.52
2019-05-01T20:14:29.361Z,100072.15
2019-05-01T20:16:58.975Z,100073.26
2019-05-01T20:19:28.812Z,100075.59
2019-05-01T20:21:58.442Z,100074.96
2019-05-01T20:24:28.110Z,100083.48
2019-05-01T20:26:57.746Z,100073.28
2019-05-01T20:29:27.597Z,100083.23
2019-05-01T20:31:57.333Z,100077.41
2019-05-01T20:34:27.342Z,100075.41
2019-05-01T20:36:56.982Z,100077.61
2019-05-01T20:39:26.642Z,100067.36
2019-05-01T20:41:56.283Z,100067.69
2019-05-01T20:44:25.961Z,100069.05
2019-05-01T20:46:58.564Z,100062.33
2019-05-01T20:49:27.346Z,100064.33
2019-05-01T20:51:56.988Z,100065.91
2019-05-01T20:54:26.656Z,100065.48
2019-05-01T20:57:00.631Z,100066.17
2019-05-01T20:59:30.294Z,100060.54
2019-05-01T21:02:07.626Z,100070.48
2019-05-01T21:04:47.525Z,100067.16
2019-05-01T21:07:20.204Z,100064.43
2019-05-01T21:09:56.776Z,100067.06
2019-05-01T21:12:22.979Z,100062.06
2019-05-01T21:14:52.711Z,100067.22
2019-05-01T21:17:22.345Z,100059.74
2019-05-01T21:19:54.346Z,100072.78
2019-05-01T21:22:23.557Z,100069.61
2019-05-01T21:24:53.381Z,100065.16
2019-05-01T21:27:24.329Z,100063.52
2019-05-01T21:29:54.554Z,100064.47
2019-05-01T21:32:27.502Z,100062.23
2019-05-01T21:34:55.774Z,100057.39
2019-05-01T21:37:25.408Z,100061.82
2019-05-01T21:39:55.430Z,100062.70
2019-05-01T21:42:25.062Z,100064.27
2019-05-01T21:44:55.167Z,100061.20
2019-05-01T21:47:24.790Z,100056.45
2019-05-01T21:49:54.449Z,100056.34
2019-05-01T21:52:26.761Z,100053.75
2019-05-01T21:54:57.091Z,100048.50
2019-05-01T21:57:27.861Z,100048.17
2019-05-01T21:59:58.236Z,100043.06
2019-05-01T22:02:27.893Z,100045.61
2019-05-01T22:04:57.534Z,100042.98
2019-05-01T22:07:28.140Z,100039.55
2019-05-01T22:09:58.656Z,100036.36
2019-05-01T22:12:28.304Z,100036.27
2019-05-01T22:15:06.286Z,100032.84
2019-05-01T22:17:38.005Z,100040.01
2019-05-01T22:20:08.235Z,100030.36
2019-05-01T22:22:44.164Z,100035.62
2019-05-01T22:25:15.182Z,100031.47
2019-05-01T22:27:46.465Z,100026.37
2019-05-01T22:30:23.990Z,100030.05
2019-05-01T22:32:55.175Z,100022.94
2019-05-01T22:35:26.433Z,100020.58
2019-05-01T22:37:56.086Z,100021.99
2019-05-01T22:40:43.917Z,100014.25
2019-05-01T22:43:13.573Z,100010.44
2019-05-01T22:45:43.202Z,100001.39
2019-05-01T22:48:12.851Z,99996.26
2019-05-01T22:50:42.479Z,99998.41
2019-05-01T22:53:12.958Z,99997.22
2019-05-01T22:55:43.439Z,99997.11
2019-05-01T22:58:14.523Z,99989.83
2019-05-01T23:00:51.887Z,99983.05
2019-05-01T23:03:23.249Z,99979.14
2019-05-01T23:05:53.073Z,99971.16
2019-05-01T23:08:22.757Z,99974.02
2019-05-01T23:10:52.520Z,99975.34
2019-05-01T23:13:22.148Z,99964.88
2019-05-01T23:15:56.229Z,99968.91
2019-05-01T23:18:23.608Z,99970.13
2019-05-01T23:20:53.717Z,99963.68
2019-05-01T23:23:23.407Z,99970.13
2019-05-01T23:25:53.073Z,99973.68
2019-05-01T23:28:22.693Z,99963.45
2019-05-01T23:30:52.463Z,99964.25
2019-05-01T23:33:22.083Z,99962.94
2019-05-01T23:35:52.253Z,99958.78
2019-05-01T23:38:21.874Z,99958.44
2019-05-01T23:40:52.941Z,99958.78
2019-05-01T23:43:23.002Z,99949.98
2019-05-01T23:45:54.073Z,99944.48
2019-05-01T23:48:23.700Z,99942.09
2019-05-01T23:50:53.643Z,99942.70
2019-05-01T23:53:23.636Z,99940.20
2019-05-01T23:55:54.714Z,99936.52
2019-05-01T23:58:25.100Z,99940.30
